CheckWX is a tool to help pilots better visualize weather data.  It is not intended as a substitute for an official pre-flight weather briefing.

21:41:26 UTC

KDLO METAR
Delano Municipal Airport
Delano, California, USA
Current

26 mins ago

KDLO 232115Z AUTO 24003KT 10SM SCT045 BKN055 20/09 A2986 RMK AO2 T02030086
Observed
May-23 @ 21:15 UTC
Wind
  • 240° at 3 KTS
Visibility
10 SM
Flight Rules
VFR
Cloud Levels
  • Scattered at 4,500' AGL
  • Broken at 5,500' AGL
Temperature
20°C / 68°F
Dewpoint
C / 48°F
Humidity
49%
Altimeter
29.86" Hg
Pressure
1011.22 hPa
Previous

46 mins ago

KDLO 232055Z AUTO 32003KT 10SM SCT050 20/09 A2986 RMK AO2 T01990085
Observed
May-23 @ 20:55 UTC
Wind
  • 320° at 3 KTS
Visibility
10 SM
Flight Rules
VFR
Cloud Levels
  • Scattered at 5,000' AGL
Temperature
20°C / 68°F
Dewpoint
C / 48°F
Humidity
49%
Altimeter
29.86" Hg
Pressure
1011.22 hPa
Previous

1 hour ago

KDLO 232035Z AUTO 24003KT 10SM SCT039 SCT050 19/09 A2986 RMK AO2 T01940086
Observed
May-23 @ 20:35 UTC
Wind
  • 240° at 3 KTS
Visibility
10 SM
Flight Rules
VFR
Cloud Levels
  • Scattered at 3,900' AGL
  • Scattered at 5,000' AGL
Temperature
19°C / 66°F
Dewpoint
C / 48°F
Humidity
52%
Altimeter
29.86" Hg
Pressure
1011.22 hPa